createdAt,value
2023-04-17T00:02:02.975Z,99872.84
2023-04-17T00:07:07.246Z,99874.13
2023-04-17T00:12:12.205Z,99880.09
2023-04-17T00:17:17.432Z,99891.41
2023-04-17T00:22:22.601Z,99900.00
2023-04-17T00:27:27.753Z,99909.44
2023-04-17T00:32:32.882Z,99922.16
2023-04-17T00:37:37.858Z,99942.88
2023-04-17T00:42:42.967Z,99929.75
2023-04-17T00:47:47.626Z,99930.34
2023-04-17T00:52:53.627Z,99943.06
2023-04-17T00:57:59.279Z,99940.16
2023-04-17T01:03:04.724Z,99932.31
2023-04-17T01:08:09.865Z,99944.53
2023-04-17T01:13:16.125Z,99947.47
2023-04-17T01:18:23.157Z,99964.38
2023-04-17T01:23:31.108Z,99986.28
2023-04-17T01:28:36.109Z,99958.53
2023-04-17T01:33:41.187Z,99955.03
2023-04-17T01:38:47.048Z,99958.66
2023-04-17T01:43:52.189Z,99951.94
2023-04-17T01:48:58.426Z,99954.25
2023-04-17T01:54:03.478Z,99950.03
2023-04-17T01:59:08.399Z,99950.09
2023-04-17T02:04:13.696Z,99947.28
2023-04-17T02:09:18.973Z,99954.22
2023-04-17T02:14:24.063Z,99934.94
2023-04-17T02:19:29.356Z,99911.50
2023-04-17T02:24:34.339Z,99917.03
2023-04-17T02:29:39.499Z,99918.28
2023-04-17T02:34:44.741Z,99920.69
2023-04-17T02:39:53.785Z,99915.50
2023-04-17T02:44:58.879Z,99897.16
2023-04-17T02:50:04.128Z,99886.81
2023-04-17T02:55:15.004Z,99894.88
2023-04-17T03:00:22.199Z,99873.28
2023-04-17T03:05:27.089Z,99880.38
2023-04-17T03:10:32.266Z,99874.53
2023-04-17T03:15:37.961Z,99860.41
2023-04-17T03:20:43.018Z,99850.09
2023-04-17T03:25:48.146Z,99836.97
2023-04-17T03:30:56.316Z,99827.34
2023-04-17T03:36:01.620Z,99835.31
2023-04-17T03:41:07.709Z,99822.53
2023-04-17T03:46:12.935Z,99835.03
2023-04-17T03:51:19.297Z,99836.53
2023-04-17T03:56:25.846Z,99839.88
2023-04-17T04:01:30.943Z,99826.22
2023-04-17T04:06:50.721Z,99808.00
2023-04-17T04:11:58.624Z,99800.03
2023-04-17T04:17:04.496Z,99807.94
2023-04-17T04:22:11.678Z,99811.03
2023-04-17T04:27:24.971Z,99799.06
2023-04-17T04:32:30.843Z,99794.81
2023-04-17T04:37:37.270Z,99786.84
2023-04-17T04:42:50.821Z,99784.69
2023-04-17T04:48:00.423Z,99785.28
2023-04-17T04:53:05.338Z,99776.09
2023-04-17T04:58:33.273Z,99753.06
2023-04-17T05:03:40.019Z,99761.34
2023-04-17T05:08:47.251Z,99762.81
2023-04-17T05:13:54.174Z,99761.81
2023-04-17T05:19:05.995Z,99775.03
2023-04-17T05:24:27.669Z,99753.22
2023-04-17T05:29:34.417Z,99757.41
2023-04-17T05:34:39.936Z,99773.19
2023-04-17T05:39:46.161Z,99758.94
2023-04-17T05:44:52.294Z,99752.59
2023-04-17T05:49:59.577Z,99752.41
2023-04-17T05:55:07.067Z,99732.19
2023-04-17T06:00:14.575Z,99722.50
2023-04-17T06:05:19.868Z,99731.72
2023-04-17T06:10:25.200Z,99715.81
2023-04-17T06:15:30.502Z,99724.78
2023-04-17T06:20:39.885Z,99711.34
2023-04-17T06:25:45.297Z,99707.31
2023-04-17T06:30:51.148Z,99708.69
2023-04-17T06:35:57.508Z,99694.66
2023-04-17T06:41:24.342Z,99689.53
2023-04-17T06:46:31.710Z,99689.25
2023-04-17T06:51:41.697Z,99702.78
2023-04-17T06:56:46.890Z,99708.97
2023-04-17T07:01:51.889Z,99696.28
2023-04-17T07:06:57.324Z,99692.78
2023-04-17T07:12:02.454Z,99681.13
2023-04-17T07:17:07.481Z,99687.63
2023-04-17T07:22:13.001Z,99685.44
2023-04-17T07:27:18.672Z,99675.72
2023-04-17T07:32:27.401Z,99696.25
2023-04-17T07:37:32.511Z,99677.06
2023-04-17T07:42:37.527Z,99683.56
2023-04-17T07:47:42.602Z,99687.34
2023-04-17T07:52:49.493Z,99665.72
2023-04-17T07:57:54.567Z,99672.19
2023-04-17T08:02:59.698Z,99678.69
2023-04-17T08:08:04.183Z,99680.03
2023-04-17T08:13:09.180Z,99684.91
2023-04-17T08:18:14.044Z,99706.53
2023-04-17T08:23:19.096Z,99678.97
2023-04-17T08:28:24.245Z,99675.72
2023-04-17T08:33:29.247Z,99665.75
2023-04-17T08:38:34.264Z,99668.19
2023-04-17T08:43:39.490Z,99690.88
2023-04-17T08:48:44.507Z,99704.28
2023-04-17T08:53:49.748Z,99704.25
2023-04-17T08:58:54.744Z,99703.16
2023-04-17T09:03:59.653Z,99719.34
2023-04-17T09:09:05.592Z,99710.66
2023-04-17T09:14:33.621Z,99727.84
2023-04-17T09:19:38.588Z,99749.13
2023-04-17T09:24:45.965Z,99741.03
2023-04-17T09:30:03.878Z,99753.63
2023-04-17T09:35:10.945Z,99752.75
2023-04-17T09:40:16.554Z,99756.44
2023-04-17T09:45:23.872Z,99755.72
2023-04-17T09:50:29.801Z,99765.81
2023-04-17T09:55:36.068Z,99767.00
2023-04-17T10:00:44.341Z,99757.50
2023-04-17T10:05:49.573Z,99749.66
2023-04-17T10:10:56.297Z,99748.78
2023-04-17T10:16:01.423Z,99781.25
2023-04-17T10:21:26.590Z,99767.59
2023-04-17T10:26:37.125Z,99755.31
2023-04-17T10:32:35.666Z,99773.03
2023-04-17T10:37:49.847Z,99799.31
2023-04-17T10:43:12.633Z,99789.34
2023-04-17T10:48:40.222Z,99793.34
2023-04-17T10:53:49.478Z,99808.25
2023-04-17T10:59:04.935Z,99806.69
2023-04-17T11:04:11.759Z,99814.22
2023-04-17T11:09:17.631Z,99842.41
2023-04-17T11:14:25.449Z,99844.31
2023-04-17T11:19:30.656Z,99837.34
2023-04-17T11:24:35.660Z,99858.81
2023-04-17T11:29:40.722Z,99872.00
2023-04-17T11:34:45.767Z,99881.09
2023-04-17T11:39:50.870Z,99881.72
2023-04-17T11:45:05.542Z,99893.22
2023-04-17T11:50:10.725Z,99897.06
2023-04-17T11:55:19.666Z,99913.50
2023-04-17T12:00:28.932Z,99935.50
2023-04-17T12:05:34.229Z,99937.00
2023-04-17T12:10:40.998Z,99930.06
2023-04-17T12:15:46.170Z,99946.00
2023-04-17T12:20:52.417Z,99969.19
2023-04-17T12:25:57.348Z,99978.69
2023-04-17T12:31:02.586Z,99992.63
2023-04-17T12:36:08.730Z,99994.81
2023-04-17T12:41:14.840Z,99995.47
2023-04-17T12:46:20.207Z,99994.06
2023-04-17T12:51:25.006Z,100002.31
2023-04-17T12:56:30.257Z,100009.19
2023-04-17T13:01:36.256Z,100013.31
2023-04-17T13:06:41.396Z,100017.72
2023-04-17T13:11:46.707Z,100033.03
2023-04-17T13:16:52.161Z,100033.91
2023-04-17T13:21:56.748Z,100046.91
2023-04-17T13:27:03.066Z,100059.75
2023-04-17T13:32:08.703Z,100058.81
2023-04-17T13:37:15.843Z,100078.84
2023-04-17T13:42:22.405Z,100086.53
2023-04-17T13:47:27.761Z,100086.44
2023-04-17T13:52:33.009Z,100102.94
2023-04-17T13:57:38.328Z,100117.81
2023-04-17T14:02:43.866Z,100122.41
2023-04-17T14:07:49.619Z,100139.94
2023-04-17T14:12:55.206Z,100145.72
2023-04-17T14:18:00.561Z,100158.25
2023-04-17T14:23:05.466Z,100166.91
2023-04-17T14:28:10.843Z,100170.03
2023-04-17T14:33:19.383Z,100156.69
2023-04-17T14:38:26.902Z,100160.81
2023-04-17T14:43:32.224Z,100146.44
2023-04-17T14:48:48.146Z,100142.34
2023-04-17T14:54:00.401Z,100112.38
2023-04-17T14:59:07.819Z,100123.66
2023-04-17T15:04:13.838Z,100128.38
2023-04-17T15:09:19.250Z,100139.91
2023-04-17T15:14:24.926Z,100138.50
2023-04-17T15:19:30.349Z,100152.03
2023-04-17T15:24:36.149Z,100154.31
2023-04-17T15:29:41.730Z,100147.75
2023-04-17T15:34:47.006Z,100169.03
2023-04-17T15:39:52.438Z,100153.66
2023-04-17T15:44:58.790Z,100153.88
2023-04-17T15:50:04.044Z,100176.59
2023-04-17T15:55:08.770Z,100187.50
2023-04-17T16:00:15.603Z,100169.84
2023-04-17T16:05:21.556Z,100168.81
2023-04-17T16:10:27.907Z,100163.03
2023-04-17T16:15:33.007Z,100164.06
2023-04-17T16:20:39.685Z,100163.63
2023-04-17T16:25:44.527Z,100153.34
2023-04-17T16:30:50.431Z,100171.34
2023-04-17T16:35:55.899Z,100156.00
2023-04-17T16:41:03.149Z,100159.22
2023-04-17T16:46:18.401Z,100163.06
2023-04-17T16:51:27.498Z,100173.50
2023-04-17T16:56:33.126Z,100179.00
2023-04-17T17:01:38.997Z,100175.34
2023-04-17T17:06:44.880Z,100167.94
2023-04-17T17:11:50.456Z,100175.84
2023-04-17T17:16:56.076Z,100193.19
2023-04-17T17:22:01.783Z,100198.88
2023-04-17T17:27:07.329Z,100201.69
2023-04-17T17:32:12.884Z,100212.91
2023-04-17T17:37:18.542Z,100221.69
2023-04-17T17:42:24.040Z,100193.59
2023-04-17T17:47:29.835Z,100198.50
2023-04-17T17:52:35.219Z,100198.66
2023-04-17T17:57:48.917Z,100202.25
2023-04-17T18:02:55.066Z,100219.38
2023-04-17T18:08:00.729Z,100211.50
2023-04-17T18:13:06.122Z,100216.00
2023-04-17T18:18:11.814Z,100218.16
2023-04-17T18:23:18.636Z,100215.00
2023-04-17T18:28:23.880Z,100216.31
2023-04-17T18:33:31.092Z,100215.75
2023-04-17T18:38:36.822Z,100216.34
2023-04-17T18:43:42.640Z,100218.28
2023-04-17T18:48:48.165Z,100203.25
2023-04-17T18:53:53.584Z,100215.00
2023-04-17T18:58:58.873Z,100233.06
2023-04-17T19:04:04.933Z,100230.97
2023-04-17T19:09:11.044Z,100230.53
2023-04-17T19:14:15.948Z,100229.50
2023-04-17T19:19:22.648Z,100255.13
2023-04-17T19:24:28.124Z,100230.69
2023-04-17T19:29:35.045Z,100237.03
2023-04-17T19:34:40.758Z,100246.78
2023-04-17T19:39:46.370Z,100249.00
2023-04-17T19:44:53.132Z,100259.53
2023-04-17T19:49:58.867Z,100264.91
2023-04-17T19:55:05.945Z,100257.88
2023-04-17T20:00:12.158Z,100272.31
2023-04-17T20:05:19.539Z,100273.75
2023-04-17T20:10:25.176Z,100276.84
2023-04-17T20:15:31.194Z,100285.63
2023-04-17T20:20:37.774Z,100290.00
2023-04-17T20:25:43.301Z,100288.25
2023-04-17T20:30:48.977Z,100289.56
2023-04-17T20:35:54.681Z,100306.53
2023-04-17T20:41:03.321Z,100313.72
2023-04-17T20:46:09.262Z,100324.38
2023-04-17T20:51:15.434Z,100329.38
2023-04-17T20:56:22.682Z,100333.72
2023-04-17T21:01:28.175Z,100346.66
2023-04-17T21:06:34.814Z,100351.16
2023-04-17T21:11:40.403Z,100360.63
2023-04-17T21:16:46.749Z,100370.09
2023-04-17T21:21:52.424Z,100387.63
2023-04-17T21:26:59.753Z,100390.97
2023-04-17T21:32:05.747Z,100408.34
2023-04-17T21:37:11.338Z,100430.19
2023-04-17T21:42:18.512Z,100433.34
2023-04-17T21:47:24.290Z,100435.00
2023-04-17T21:52:30.089Z,100427.72
2023-04-17T21:57:36.311Z,100435.66
2023-04-17T22:02:41.905Z,100437.97
2023-04-17T22:07:54.883Z,100460.81
2023-04-17T22:13:01.039Z,100477.66
2023-04-17T22:18:06.693Z,100460.66
2023-04-17T22:23:30.484Z,100466.09
2023-04-17T22:29:12.122Z,100458.81
2023-04-17T22:34:54.037Z,100460.97
2023-04-17T22:40:36.148Z,100472.16
2023-04-17T22:46:00.271Z,100482.75
2023-04-17T22:51:06.434Z,100506.38
2023-04-17T22:56:15.069Z,100485.44
2023-04-17T23:01:20.408Z,100506.22
2023-04-17T23:06:27.371Z,100490.69
2023-04-17T23:11:33.989Z,100515.03
2023-04-17T23:16:38.954Z,100541.19
2023-04-17T23:21:43.994Z,100550.28
2023-04-17T23:26:50.131Z,100552.88
2023-04-17T23:31:55.249Z,100575.22
2023-04-17T23:37:00.389Z,100567.66
2023-04-17T23:42:08.419Z,100563.16
2023-04-17T23:47:16.792Z,100557.31
2023-04-17T23:52:21.622Z,100571.69
2023-04-17T23:57:27.874Z,100581.41
